Time;durP1;ratioP1;P1;durP2;ratioP2;P2;SDS_P1;SDS_P2;PMS_P1;PMS_P2;Temp;Humidity;BMP_temperature;BMP_pressure;BME280_temperature;BME280_humidity;BME280_pressure;Samples;Min_cycle;Max_cycle;Signal;HPM_P1;HPM_P2
2022/11/27 00:01:16;;;;;;;14.90;7.80;;;;;;;4.32;71.10;98029.22;5066805;28;20224;-78
2022/11/27 00:04:02;;;;;;;20.43;9.60;;;;;;;4.07;71.45;98032.75;5050422;28;20234;-78
2022/11/27 00:06:38;;;;;;;13.73;7.50;;;;;;;3.71;72.92;98028.59;5032467;28;20328;-79
2022/11/27 00:09:13;;;;;;;12.37;7.07;;;;;;;3.42;73.63;98025.25;5049156;28;20660;-77
2022/11/27 00:11:43;;;;;;;9.97;6.50;;;;;;;3.43;73.92;98026.13;5048146;28;20250;-79
2022/11/27 00:14:17;;;;;;;12.37;6.87;;;;;;;3.50;74.16;98013.34;5049866;28;20185;-79
2022/11/27 00:16:51;;;;;;;9.40;6.63;;;;;;;3.58;74.77;98032.09;5067319;28;20664;-79
2022/11/27 00:19:20;;;;;;;9.57;7.23;;;;;;;3.50;74.55;98020.16;5048334;28;20199;-78
2022/11/27 00:21:48;;;;;;;9.00;6.67;;;;;;;3.59;73.86;97995.34;5032660;28;20295;-79
2022/11/27 00:24:20;;;;;;;9.63;6.47;;;;;;;3.91;73.32;98031.97;5048169;28;20228;-79
2022/11/27 00:27:00;;;;;;;12.73;7.47;;;;;;;3.97;72.34;98020.84;5032726;28;20217;-78
2022/11/27 00:29:35;;;;;;;10.73;6.53;;;;;;;4.17;72.31;98039.53;5051414;28;20197;-79
2022/11/27 00:32:12;;;;;;;14.67;8.30;;;;;;;3.99;72.48;98011.44;5066212;28;20193;-79
2022/11/27 00:34:46;;;;;;;11.73;7.27;;;;;;;3.99;72.64;98026.81;5032358;28;20335;-79
2022/11/27 00:37:29;;;;;;;14.07;8.43;;;;;;;4.20;73.32;98043.81;5048587;28;20658;-79
2022/11/27 00:40:07;;;;;;;16.27;8.57;;;;;;;4.37;72.67;98042.03;5049951;28;20276;-80
2022/11/27 00:42:37;;;;;;;13.53;8.53;;;;;;;4.30;72.06;98038.63;5032452;28;20211;-79
2022/11/27 00:45:11;;;;;;;13.37;8.27;;;;;;;4.41;72.10;98044.53;5049242;28;20192;-78
2022/11/27 00:47:38;;;;;;;13.83;7.97;;;;;;;4.51;72.17;98038.50;5048760;28;20197;-78
2022/11/27 00:50:07;;;;;;;14.73;7.23;;;;;;;4.54;72.09;98038.47;5048001;28;20655;-79
2022/11/27 00:52:37;;;;;;;11.80;7.20;;;;;;;4.56;71.03;98044.44;5047721;28;20680;-78
2022/11/27 00:55:05;;;;;;;14.00;8.07;;;;;;;4.61;71.41;98044.44;5065311;28;20228;-78
2022/11/27 00:57:33;;;;;;;16.43;8.60;;;;;;;4.78;70.81;98051.13;5047755;28;20196;-79
2022/11/27 01:00:05;;;;;;;16.37;10.53;;;;;;;4.81;71.01;98051.13;5047815;28;20228;-79
2022/11/27 01:02:36;;;;;;;15.23;9.43;;;;;;;4.84;70.58;98045.97;5048171;28;20185;-79
2022/11/27 01:05:04;;;;;;;16.40;9.50;;;;;;;4.64;70.93;98027.28;5031047;28;20710;-77
2022/11/27 01:07:33;;;;;;;18.10;9.80;;;;;;;4.73;71.36;98026.38;5065540;28;20195;-79
2022/11/27 01:10:01;;;;;;;16.63;9.47;;;;;;;4.83;70.77;98041.72;5047625;28;20300;-78
2022/11/27 01:12:31;;;;;;;14.87;10.30;;;;;;;4.35;71.87;97993.28;5048006;28;20193;-79
2022/11/27 01:15:01;;;;;;;16.63;8.97;;;;;;;4.43;71.80;98029.16;5032715;28;20201;-80
2022/11/27 01:17:29;;;;;;;11.77;8.17;;;;;;;4.11;71.84;97998.56;5048227;28;20185;-81
2022/11/27 01:19:58;;;;;;;14.20;8.30;;;;;;;4.16;72.17;98034.44;5047230;28;20204;-79
2022/11/27 01:22:28;;;;;;;13.37;7.90;;;;;;;4.12;72.60;98046.41;5066307;28;20284;-79
2022/11/27 01:24:59;;;;;;;15.73;8.20;;;;;;;4.21;72.33;98038.66;5051094;28;20197;-79
2022/11/27 01:27:32;;;;;;;15.00;8.37;;;;;;;4.34;72.59;98027.50;5069409;28;20205;-78
2022/11/27 01:30:06;;;;;;;15.90;8.63;;;;;;;4.24;72.35;98023.28;5035653;28;20189;-78
2022/11/27 01:32:40;;;;;;;13.03;7.30;;;;;;;3.89;72.86;98005.50;5069447;28;20200;-79
2022/11/27 01:35:29;;;;;;;15.83;8.80;;;;;;;4.01;72.99;98020.84;5055152;28;20735;-80
2022/11/27 01:38:05;;;;;;;14.70;8.70;;;;;;;4.16;72.83;98030.16;5069128;28;20197;-80
2022/11/27 01:40:36;;;;;;;14.40;9.10;;;;;;;4.27;72.23;98030.94;5051538;28;20221;-80
2022/11/27 01:43:47;;;;;;;14.37;8.77;;;;;;;4.35;71.81;98034.31;5054221;28;20216;-79
2022/11/27 01:46:37;;;;;;;16.40;9.97;;;;;;;4.15;72.78;98036.13;5051030;28;20199;-79
2022/11/27 01:49:10;;;;;;;17.60;9.63;;;;;;;4.04;73.31;98037.88;5069541;28;20199;-78
2022/11/27 01:51:53;;;;;;;16.80;9.27;;;;;;;4.03;72.47;98018.25;5051056;28;20664;-79
2022/11/27 01:54:25;;;;;;;16.10;9.53;;;;;;;4.10;73.67;98035.31;5058670;28;20704;-81
2022/11/27 01:56:57;;;;;;;15.67;9.97;;;;;;;4.02;72.91;98021.66;5089043;28;20287;-79
2022/11/27 01:59:25;;;;;;;13.67;9.53;;;;;;;4.04;73.15;98022.50;5070381;28;20553;-79
2022/11/27 02:01:54;;;;;;;14.57;9.53;;;;;;;3.90;73.56;98019.16;5068842;28;20216;-80
2022/11/27 02:04:21;;;;;;;16.07;9.20;;;;;;;3.91;73.90;98026.00;5034452;28;20747;-79
2022/11/27 02:06:49;;;;;;;13.17;8.93;;;;;;;4.01;73.87;98027.66;5055111;28;20302;-78
2022/11/27 02:09:18;;;;;;;16.70;9.80;;;;;;;3.96;73.56;98027.66;5059215;28;20278;-78
2022/11/27 02:11:57;;;;;;;16.60;8.87;;;;;;;4.11;73.69;98021.63;5051043;28;21073;-80
2022/11/27 02:15:06;;;;;;;12.23;8.40;;;;;;;4.13;73.50;98007.09;5074229;28;20204;-80
2022/11/27 02:17:54;;;;;;;13.20;7.87;;;;;;;4.20;73.59;98010.47;5070819;28;20752;-80
2022/11/27 02:20:51;;;;;;;15.17;9.53;;;;;;;4.41;73.60;98013.75;5086167;28;20282;-79
2022/11/27 02:23:48;;;;;;;13.70;8.53;;;;;;;4.51;72.40;98012.88;5034742;28;20309;-79
2022/11/27 02:27:27;;;;;;;18.03;9.63;;;;;;;4.78;71.99;98017.78;5054624;28;20246;-80
2022/11/27 02:30:07;;;;;;;15.20;9.77;;;;;;;4.90;71.59;98017.69;5051367;28;20200;-79
2022/11/27 02:32:59;;;;;;;16.07;10.43;;;;;;;4.94;71.45;98011.69;5002507;28;20204;-79
2022/11/27 02:35:34;;;;;;;15.77;10.17;;;;;;;5.03;71.04;98035.59;5067759;28;20182;-78
2022/11/27 02:38:16;;;;;;;14.73;10.87;;;;;;;5.02;70.64;98023.59;5083065;28;20599;-79
2022/11/27 02:44:05;;;;;;;19.13;10.70;;;;;;;5.20;70.07;98037.13;5057675;28;20235;-79
2022/11/27 02:46:36;;;;;;;16.33;10.47;;;;;;;5.20;69.84;98039.69;5071046;28;20184;-81
2022/11/27 02:49:22;;;;;;;17.70;10.90;;;;;;;5.03;69.60;98022.75;5088917;28;20676;-82
2022/11/27 02:52:01;;;;;;;19.73;10.73;;;;;;;5.02;70.13;98028.72;5071065;28;20201;-79
2022/11/27 02:54:38;;;;;;;18.00;10.57;;;;;;;4.95;69.57;98026.22;5054959;28;20205;-82
2022/11/27 02:57:36;;;;;;;16.03;9.70;;;;;;;4.99;70.37;98037.31;5062256;28;20567;-80
2022/11/27 03:00:10;;;;;;;14.60;9.40;;;;;;;4.93;70.03;98035.63;5044462;28;20236;-80
2022/11/27 03:02:54;;;;;;;15.70;9.57;;;;;;;4.64;71.01;98026.44;5032131;28;20194;-81
2022/11/27 03:06:03;;;;;;;16.63;10.57;;;;;;;4.49;72.16;98042.78;5025136;28;20198;-82
2022/11/27 03:09:12;;;;;;;15.07;9.90;;;;;;;4.38;73.29;98046.28;5044625;28;20210;-80
2022/11/27 03:11:58;;;;;;;18.50;10.83;;;;;;;4.31;73.45;98040.31;5046991;28;20182;-79
2022/11/27 03:14:33;;;;;;;16.57;10.20;;;;;;;4.18;73.87;98036.13;5047796;28;20761;-79
2022/11/27 03:17:10;;;;;;;17.90;10.97;;;;;;;4.11;74.20;98044.69;5030357;28;20213;-79
2022/11/27 03:20:06;;;;;;;20.90;12.57;;;;;;;4.07;74.41;98043.88;5032904;28;20196;-81
2022/11/27 03:22:43;;;;;;;16.10;10.70;;;;;;;4.09;74.49;98046.41;5040095;28;20258;-79
2022/11/27 03:25:15;;;;;;;20.37;11.13;;;;;;;4.11;74.25;98039.56;5029469;28;20248;-81
2022/11/27 03:28:10;;;;;;;18.77;11.33;;;;;;;4.05;74.31;98017.41;5024008;28;20294;-79
2022/11/27 03:30:43;;;;;;;13.27;9.20;;;;;;;4.19;74.01;98042.94;5012388;28;20194;-78
2022/11/27 03:33:20;;;;;;;13.20;9.20;;;;;;;4.18;73.90;98041.25;5014223;28;20676;-79
2022/11/27 03:35:47;;;;;;;14.30;9.53;;;;;;;4.23;73.61;98024.13;5047502;28;20188;-80
2022/11/27 03:38:15;;;;;;;15.17;9.23;;;;;;;4.41;74.16;98041.97;5047376;28;20194;-79
2022/11/27 03:41:31;;;;;;;16.33;10.23;;;;;;;4.42;73.34;98048.81;5039425;28;20247;-79
2022/11/27 03:44:49;;;;;;;17.23;11.33;;;;;;;4.03;73.92;98006.31;5058112;28;20224;-79
2022/11/27 03:47:26;;;;;;;13.57;8.93;;;;;;;4.24;74.18;98045.50;5008032;28;20291;-80
2022/11/27 03:50:27;;;;;;;14.80;9.23;;;;;;;4.23;74.41;98038.66;5067362;28;20201;-80
2022/11/27 03:53:21;;;;;;;14.77;9.33;;;;;;;4.09;74.93;98039.59;5066969;28;20224;-80
2022/11/27 03:56:35;;;;;;;14.43;9.67;;;;;;;4.11;75.06;98039.56;5067211;28;20189;-80
2022/11/27 03:59:29;;;;;;;13.77;9.30;;;;;;;4.14;74.79;98048.09;5050062;28;20197;-79
2022/11/27 04:02:26;;;;;;;14.50;9.93;;;;;;;4.12;75.01;98047.25;5075971;28;20200;-79
2022/11/27 04:05:39;;;;;;;16.00;9.53;;;;;;;4.19;74.65;98037.81;5086844;28;20285;-81
2022/11/27 04:08:24;;;;;;;15.83;10.60;;;;;;;4.18;74.56;98028.44;5034046;28;20192;-79
2022/11/27 04:11:36;;;;;;;15.90;8.63;;;;;;;4.10;74.02;97996.88;5055995;28;20227;-80
2022/11/27 04:14:05;;;;;;;11.97;8.13;;;;;;;4.47;74.13;98033.41;5032209;28;20193;-79
2022/11/27 04:16:43;;;;;;;11.37;8.43;;;;;;;4.50;73.07;98034.22;5065434;28;20201;-80
2022/11/27 04:19:13;;;;;;;14.17;8.70;;;;;;;4.41;73.37;98039.41;5066521;28;20217;-79
2022/11/27 04:21:41;;;;;;;13.47;9.23;;;;;;;4.46;73.33;98031.69;5049029;28;20220;-80
2022/11/27 04:24:09;;;;;;;18.63;9.90;;;;;;;4.56;73.34;98044.44;5066218;28;20221;-83
2022/11/27 04:26:40;;;;;;;15.17;8.77;;;;;;;4.64;72.60;98047.81;5033102;28;20195;-80
2022/11/27 04:29:10;;;;;;;29.87;11.73;;;;;;;4.39;73.41;98030.88;5066746;28;20669;-79
2022/11/27 04:31:42;;;;;;;18.00;8.70;;;;;;;4.54;72.71;98046.19;5031688;28;20197;-79
2022/11/27 04:34:15;;;;;;;15.23;9.53;;;;;;;4.37;73.27;98031.75;5054100;28;20211;-79
2022/11/27 04:36:47;;;;;;;15.27;9.47;;;;;;;4.38;72.81;98007.81;5066210;28;21059;-79
2022/11/27 04:39:19;;;;;;;15.13;9.93;;;;;;;4.54;72.42;98038.47;5017864;28;20186;-78
2022/11/27 04:41:48;;;;;;;16.17;10.20;;;;;;;4.14;73.33;97985.75;5066187;28;20640;-78
2022/11/27 04:44:15;;;;;;;15.73;9.80;;;;;;;4.23;73.65;98031.81;5065785;28;20224;-78
2022/11/27 04:46:46;;;;;;;15.73;10.80;;;;;;;4.05;73.73;98013.97;5066726;28;20196;-79
2022/11/27 04:49:17;;;;;;;15.77;9.13;;;;;;;4.17;73.63;98052.34;5048557;28;20208;-79
2022/11/27 04:51:47;;;;;;;16.03;8.63;;;;;;;4.03;73.96;98044.75;5066538;28;20735;-79
2022/11/27 04:54:25;;;;;;;14.30;8.10;;;;;;;3.99;74.08;98031.94;5033042;28;20191;-78
2022/11/27 04:56:56;;;;;;;14.20;8.07;;;;;;;4.15;73.83;98043.81;5048011;28;20204;-79
2022/11/27 04:59:33;;;;;;;12.63;7.77;;;;;;;4.14;73.28;98029.31;5036308;28;20193;-82
2022/11/27 05:02:19;;;;;;;12.03;8.17;;;;;;;4.13;73.39;98048.97;5047866;28;20227;-79
2022/11/27 05:05:01;;;;;;;11.47;8.40;;;;;;;3.98;73.64;98023.38;5048311;28;20364;-81
2022/11/27 05:07:55;;;;;;;11.37;7.57;;;;;;;4.01;75.08;98043.03;5036286;28;20190;-79
2022/11/27 05:10:33;;;;;;;10.13;7.17;;;;;;;4.02;73.93;98042.16;5036581;28;20659;-80
2022/11/27 05:13:10;;;;;;;12.23;7.40;;;;;;;4.06;73.75;98046.41;5070270;28;20204;-82
2022/11/27 05:15:58;;;;;;;10.10;7.23;;;;;;;4.12;73.82;98056.66;5025248;28;20185;-79
2022/11/27 05:18:26;;;;;;;10.37;7.07;;;;;;;3.88;73.74;98051.63;5051970;28;20295;-81
2022/11/27 05:21:10;;;;;;;16.10;8.30;;;;;;;4.04;73.37;98040.44;5051934;28;20196;-83
2022/11/27 05:23:38;;;;;;;13.67;7.77;;;;;;;3.91;74.06;98049.06;5065029;28;20284;-81
2022/11/27 05:26:08;;;;;;;14.07;7.93;;;;;;;4.09;73.30;98052.41;5070303;28;20196;-80
2022/11/27 05:28:39;;;;;;;15.57;8.60;;;;;;;4.09;73.35;98048.97;5018807;28;20197;-80
2022/11/27 05:31:10;;;;;;;11.93;8.27;;;;;;;4.07;73.00;98048.13;5028458;28;20200;-79
2022/11/27 05:33:38;;;;;;;11.33;8.00;;;;;;;4.13;72.66;98050.66;5032250;28;20573;-79
2022/11/27 05:36:07;;;;;;;12.97;8.10;;;;;;;3.91;73.65;98051.63;5061301;28;20247;-79
2022/11/27 05:38:35;;;;;;;22.27;9.10;;;;;;;3.85;73.20;98016.59;5049399;28;20283;-79
2022/11/27 05:41:11;;;;;;;13.73;8.43;;;;;;;4.03;73.49;98046.44;5069517;28;20192;-79
2022/11/27 05:43:43;;;;;;;12.67;8.50;;;;;;;4.09;72.66;98043.84;5069789;28;20219;-79
2022/11/27 05:46:17;;;;;;;14.03;8.33;;;;;;;4.07;72.45;98066.94;5069936;28;20216;-80
2022/11/27 05:48:51;;;;;;;14.13;8.53;;;;;;;4.14;72.93;98058.34;5036224;28;20200;-80
2022/11/27 05:51:49;;;;;;;16.87;9.17;;;;;;;4.20;73.42;98048.94;5050065;28;20186;-80
2022/11/27 05:54:55;;;;;;;14.50;9.77;;;;;;;4.20;72.47;98070.31;5016808;28;20281;-80
2022/11/27 05:57:30;;;;;;;15.33;9.37;;;;;;;4.06;73.24;98074.59;5031619;28;20289;-77
2022/11/27 06:00:15;;;;;;;17.73;10.30;;;;;;;4.09;73.43;98105.34;5049370;28;20198;-79
2022/11/27 06:02:50;;;;;;;16.53;9.17;;;;;;;4.14;73.02;98081.41;5050691;28;20232;-80
2022/11/27 06:05:18;;;;;;;12.97;9.30;;;;;;;4.26;73.19;98092.47;5051310;28;20684;-79
2022/11/27 06:07:47;;;;;;;17.60;10.10;;;;;;;4.15;72.76;98072.00;5051750;28;20284;-79
2022/11/27 06:10:16;;;;;;;26.77;16.67;;;;;;;4.17;73.33;98088.25;5053138;28;20825;-79
2022/11/27 06:12:51;;;;;;;35.90;19.40;;;;;;;4.19;73.66;98083.97;5060644;28;20193;-80
2022/11/27 06:15:36;;;;;;;28.23;17.77;;;;;;;4.27;72.62;98082.22;5068454;28;20197;-80
2022/11/27 06:18:19;;;;;;;28.43;18.13;;;;;;;4.21;72.60;98089.94;5049334;28;20324;-80
2022/11/27 06:20:52;;;;;;;26.10;14.40;;;;;;;4.19;73.29;98104.47;5055533;28;20197;-78
2022/11/27 06:23:24;;;;;;;27.20;17.07;;;;;;;4.13;73.82;98099.38;5089740;28;20203;-79
2022/11/27 06:26:19;;;;;;;31.97;19.43;;;;;;;3.96;73.72;98055.84;5069488;28;20749;-79
2022/11/27 06:28:51;;;;;;;28.53;17.20;;;;;;;4.32;73.47;98092.44;5069462;28;20227;-79
2022/11/27 06:31:39;;;;;;;27.30;17.63;;;;;;;4.33;73.20;98099.31;5051024;28;20200;-79
2022/11/27 06:34:35;;;;;;;68.57;33.80;;;;;;;4.25;73.61;98083.06;5055052;28;20663;-78
2022/11/27 06:37:37;;;;;;;35.73;22.13;;;;;;;4.40;73.01;98099.25;5074703;28;20203;-79
2022/11/27 06:40:19;;;;;;;33.07;19.83;;;;;;;4.25;73.87;98104.44;5072781;28;20192;-79
2022/11/27 06:43:04;;;;;;;26.33;16.73;;;;;;;4.25;74.12;98086.50;5086868;28;20204;-79
2022/11/27 06:45:35;;;;;;;27.53;16.67;;;;;;;4.31;73.80;98089.03;5039521;28;20656;-79
2022/11/27 06:48:13;;;;;;;22.27;14.10;;;;;;;4.46;73.42;98073.56;5089930;28;20204;-81
2022/11/27 06:50:44;;;;;;;15.30;10.43;;;;;;;4.71;72.73;98092.25;5086754;28;20250;-80
2022/11/27 06:53:20;;;;;;;18.97;12.77;;;;;;;4.49;72.83;98096.63;5071186;28;20594;-80
2022/11/27 06:55:52;;;;;;;20.67;12.67;;;;;;;4.58;73.66;98103.44;5069503;28;20601;-79
2022/11/27 06:58:53;;;;;;;16.30;10.93;;;;;;;4.64;73.18;98081.16;5070019;28;20195;-81
2022/11/27 07:02:45;;;;;;;16.60;10.77;;;;;;;4.72;73.10;98101.63;5089101;28;20550;-82
2022/11/27 07:06:18;;;;;;;13.17;8.53;;;;;;;4.64;72.85;98094.00;5091740;28;20301;-78
2022/11/27 07:09:21;;;;;;;15.60;9.30;;;;;;;4.64;73.32;98104.25;5059881;28;20262;-80
2022/11/27 07:11:57;;;;;;;11.20;8.20;;;;;;;4.64;73.37;98099.13;5087726;28;20192;-79
2022/11/27 07:14:28;;;;;;;14.90;9.40;;;;;;;4.50;74.58;98059.88;5070611;28;20746;-78
2022/11/27 07:16:56;;;;;;;16.70;9.13;;;;;;;4.75;74.13;98089.66;5071499;28;20193;-80
2022/11/27 07:20:23;;;;;;;12.40;9.23;;;;;;;4.75;75.18;98092.22;5096604;28;20267;-80
2022/11/27 07:23:02;;;;;;;13.80;8.17;;;;;;;4.78;75.72;98097.31;5057698;28;20251;-82
2022/11/27 07:25:37;;;;;;;15.00;9.63;;;;;;;4.74;76.89;98092.25;5053939;28;20320;-81
2022/11/27 07:28:18;;;;;;;13.20;8.83;;;;;;;4.86;76.16;98097.28;5057686;28;20187;-80
2022/11/27 07:30:57;;;;;;;19.67;8.07;;;;;;;4.97;76.84;98097.22;5053413;28;20257;-80
2022/11/27 07:33:37;;;;;;;12.63;8.17;;;;;;;4.92;76.59;98090.38;5053159;28;20279;-79
2022/11/27 07:36:30;;;;;;;12.30;7.90;;;;;;;5.02;77.38;98105.72;5070049;28;20199;-81
2022/11/27 07:39:04;;;;;;;13.33;7.27;;;;;;;4.97;76.05;98109.19;5086918;28;20698;-80
2022/11/27 07:41:47;;;;;;;9.20;6.60;;;;;;;4.81;76.07;98068.22;5077698;28;20333;-80
2022/11/27 07:44:20;;;;;;;13.73;8.33;;;;;;;5.21;75.35;98102.19;5069389;28;20220;-81
2022/11/27 07:46:56;;;;;;;11.20;8.20;;;;;;;5.17;75.57;98080.81;5055678;28;20272;-81
2022/11/27 07:49:40;;;;;;;11.27;7.97;;;;;;;5.46;73.95;98104.50;5054251;28;20188;-81
2022/11/27 07:52:36;;;;;;;17.90;11.00;;;;;;;5.50;73.01;98101.06;5080287;28;20288;-81
2022/11/27 07:55:24;;;;;;;18.87;9.93;;;;;;;5.65;72.89;98093.22;5081957;28;20706;-80
2022/11/27 07:58:19;;;;;;;14.07;9.17;;;;;;;5.83;72.53;98097.34;5087937;28;20181;-81
2022/11/27 08:00:48;;;;;;;14.70;9.73;;;;;;;5.88;71.43;98080.16;5082331;28;20197;-80
2022/11/27 08:03:37;;;;;;;12.67;8.67;;;;;;;6.02;70.54;98096.28;5069562;28;20212;-80
2022/11/27 08:06:18;;;;;;;15.87;10.23;;;;;;;6.08;70.48;98085.94;5053206;28;20232;-80
2022/11/27 08:09:28;;;;;;;15.77;10.67;;;;;;;6.21;70.21;98096.94;5042971;28;20244;-81
2022/11/27 08:12:17;;;;;;;16.20;10.90;;;;;;;6.02;70.93;98078.28;5087315;28;20293;-79
2022/11/27 08:19:02;;;;;;;15.00;9.67;;;;;;;6.24;70.67;98084.03;5086914;28;20206;-82
2022/11/27 08:21:55;;;;;;;15.50;10.03;;;;;;;6.32;70.27;98098.53;5038460;28;20226;-81
2022/11/27 08:26:22;;;;;;;13.90;9.63;;;;;;;6.11;69.90;98055.06;5081644;28;20244;-78
2022/11/27 08:30:09;;;;;;;13.93;8.80;;;;;;;6.58;69.03;98095.59;5076258;28;20314;-80
2022/11/27 08:33:40;;;;;;;14.90;9.00;;;;;;;6.50;69.29;98100.00;5063603;28;20512;-84
2022/11/27 08:37:20;;;;;;;14.57;9.70;;;;;;;6.59;70.24;98095.56;5044106;28;20311;-81
2022/11/27 08:40:19;;;;;;;17.93;10.03;;;;;;;6.76;69.36;98091.94;5027043;28;20207;-80
2022/11/27 08:43:18;;;;;;;23.93;14.23;;;;;;;6.84;67.58;98077.25;5015414;28;20283;-82
2022/11/27 08:46:05;;;;;;;15.67;11.73;;;;;;;6.89;67.77;98072.84;5043696;28;20350;-80
2022/11/27 08:48:41;;;;;;;16.20;11.13;;;;;;;7.05;66.80;98077.75;5043330;28;20644;-80
2022/11/27 08:51:39;;;;;;;20.00;12.80;;;;;;;7.37;66.50;98083.28;5018565;28;20214;-81
2022/11/27 08:54:27;;;;;;;18.57;11.13;;;;;;;7.47;65.45;98076.22;5019544;28;20669;-80
2022/11/27 08:57:24;;;;;;;19.97;11.97;;;;;;;7.49;65.75;98066.75;5005818;28;20203;-81
2022/11/27 09:00:38;;;;;;;22.70;13.00;;;;;;;7.59;66.73;98062.25;5016967;28;20291;-84
2022/11/27 09:03:21;;;;;;;18.70;11.83;;;;;;;7.63;65.52;98059.59;5010131;28;20216;-81
2022/11/27 09:06:18;;;;;;;17.50;12.03;;;;;;;7.74;65.14;98052.53;5002626;28;20738;-82
2022/11/27 09:09:38;;;;;;;16.70;10.97;;;;;;;7.94;64.09;98045.28;5050670;28;20198;-85
2022/11/27 09:12:26;;;;;;;14.90;10.47;;;;;;;7.81;64.01;98023.16;5068620;28;20578;-81
2022/11/27 09:15:48;;;;;;;16.67;9.80;;;;;;;7.90;63.64;98030.75;5051003;28;20203;-81
2022/11/27 09:18:49;;;;;;;29.07;17.60;;;;;;;8.01;62.85;98031.41;5033178;28;20282;-82
2022/11/27 09:21:31;;;;;;;44.60;27.37;;;;;;;8.07;62.49;98000.31;5022103;28;20204;-82
2022/11/27 09:24:06;;;;;;;17.37;10.80;;;;;;;8.29;60.98;98015.34;5040000;28;20759;-81
2022/11/27 09:29:53;;;;;;;13.60;9.40;;;;;;;8.62;59.44;97997.41;5032229;28;20290;-82
2022/11/27 09:32:37;;;;;;;13.80;9.67;;;;;;;8.82;59.45;97996.97;5018105;28;20198;-80
2022/11/27 09:35:56;;;;;;;18.57;11.13;;;;;;;8.99;59.68;98002.56;5036859;28;20323;-80
2022/11/27 09:39:08;;;;;;;19.57;10.53;;;;;;;9.05;58.48;97981.75;5031517;28;20251;-81
2022/11/27 09:42:15;;;;;;;20.43;11.80;;;;;;;9.25;57.47;97991.59;5028450;28;20204;-81
2022/11/27 09:45:07;;;;;;;14.13;8.70;;;;;;;9.29;56.26;97985.47;5048242;28;20715;-80
2022/11/27 09:48:04;;;;;;;13.87;8.27;;;;;;;9.27;55.70;97979.47;5032697;28;20189;-81
2022/11/27 09:51:02;;;;;;;12.43;7.60;;;;;;;9.43;53.53;97965.25;5050487;28;20189;-81
2022/11/27 09:54:12;;;;;;;9.70;5.93;;;;;;;9.41;52.17;97961.88;5017562;28;20205;-82
2022/11/27 09:56:43;;;;;;;9.10;5.63;;;;;;;9.56;53.13;97971.81;5045061;28;20289;-81
2022/11/27 09:59:19;;;;;;;7.67;5.53;;;;;;;9.37;50.91;97944.75;5032431;28;20194;-80
2022/11/27 10:01:48;;;;;;;6.83;4.57;;;;;;;9.49;50.01;97952.16;5031649;28;20201;-82
2022/11/27 10:04:20;;;;;;;6.57;4.00;;;;;;;9.49;49.75;97932.34;5018326;28;20201;-80
2022/11/27 10:07:22;;;;;;;5.63;3.90;;;;;;;9.72;50.18;97961.00;5053286;28;20197;-78
2022/11/27 10:10:22;;;;;;;25.03;17.67;;;;;;;9.61;49.02;97951.84;5054029;28;20202;-80
2022/11/27 10:13:20;;;;;;;100.00;56.90;;;;;;;9.47;48.12;97953.94;5054695;28;20273;-79
2022/11/27 10:15:57;;;;;;;1902.97;920.53;;;;;;;9.74;53.36;97941.13;5068371;28;20981;-75
2022/11/27 10:18:55;;;;;;;574.33;299.80;;;;;;;9.89;49.09;97949.34;5084337;28;20204;-78
2022/11/27 10:21:56;;;;;;;1999.90;992.30;;;;;;;10.04;51.70;97934.22;5066114;28;20575;-80
2022/11/27 10:24:59;;;;;;;1783.93;744.57;;;;;;;9.77;50.07;97903.97;5051726;28;20621;-79
2022/11/27 10:28:06;;;;;;;744.43;390.33;;;;;;;9.96;48.57;97936.19;5056593;28;20234;-82
2022/11/27 10:31:14;;;;;;;1999.90;999.90;;;;;;;9.95;51.63;97928.47;5035088;28;20197;-79
2022/11/27 10:33:52;;;;;;;172.80;90.87;;;;;;;9.61;48.20;97893.22;5054661;28;20193;-79
2022/11/27 10:36:52;;;;;;;1865.50;937.60;;;;;;;10.02;52.04;97929.97;5069724;28;20243;-82
2022/11/27 10:40:12;;;;;;;819.80;506.37;;;;;;;9.98;49.03;97912.84;5041668;28;20292;-81
2022/11/27 10:43:17;;;;;;;43.23;24.50;;;;;;;10.06;47.12;97927.25;5041697;28;20637;-77
2022/11/27 10:45:56;;;;;;;4.87;3.07;;;;;;;9.84;46.01;97916.69;5053479;28;20229;-80
2022/11/27 10:48:35;;;;;;;3.37;2.83;;;;;;;9.75;45.73;97895.41;5068391;28;20240;-78
2022/11/27 10:51:22;;;;;;;3.73;2.50;;;;;;;9.66;45.37;97880.16;5068179;28;20196;-80
2022/11/27 10:54:00;;;;;;;5.17;3.00;;;;;;;9.81;45.59;97914.19;5050865;28;20628;-80
2022/11/27 10:56:54;;;;;;;5.10;3.47;;;;;;;9.95;45.19;97912.94;5052230;28;20197;-77
2022/11/27 10:59:30;;;;;;;9.53;3.63;;;;;;;9.80;44.98;97893.53;5066706;28;20208;-77
2022/11/27 11:02:04;;;;;;;4.67;2.77;;;;;;;9.83;45.54;97904.63;5050484;28;20239;-79
2022/11/27 11:04:35;;;;;;;4.47;2.73;;;;;;;9.88;45.06;97903.66;5067008;28;20265;-79
2022/11/27 11:07:24;;;;;;;4.97;2.77;;;;;;;9.81;45.21;97885.72;5018123;28;20269;-77
2022/11/27 11:09:56;;;;;;;6.93;3.23;;;;;;;9.75;45.57;97880.72;5068086;28;20221;-77
2022/11/27 11:12:25;;;;;;;7.50;3.00;;;;;;;9.91;45.30;97890.63;5049493;28;20193;-78
2022/11/27 11:14:58;;;;;;;6.00;3.10;;;;;;;9.79;45.38;97879.75;5068128;28;20690;-78
2022/11/27 11:17:40;;;;;;;4.67;3.03;;;;;;;9.68;45.07;97843.03;5067107;28;20218;-77
2022/11/27 11:20:24;;;;;;;4.33;2.90;;;;;;;9.86;44.63;97877.84;5051328;28;20189;-77
2022/11/27 11:22:56;;;;;;;5.97;3.13;;;;;;;9.86;44.90;97883.00;5067573;28;20193;-78
2022/11/27 11:25:24;;;;;;;10.13;3.33;;;;;;;9.90;45.37;97876.00;5032131;28;20228;-77
2022/11/27 11:28:34;;;;;;;6.13;4.07;;;;;;;9.78;45.49;97872.91;5031662;28;20779;-78
2022/11/27 11:31:11;;;;;;;7.60;4.43;;;;;;;9.80;44.93;97878.88;5032710;28;20197;-78
2022/11/27 11:34:01;;;;;;;7.40;3.63;;;;;;;9.86;45.28;97877.84;5067398;28;20185;-78
2022/11/27 11:36:34;;;;;;;3.53;2.97;;;;;;;9.67;45.38;97872.34;5052283;28;20269;-77
2022/11/27 11:39:05;;;;;;;3.40;2.77;;;;;;;9.53;45.99;97838.28;5048983;28;20259;-78
2022/11/27 11:41:46;;;;;;;5.67;3.23;;;;;;;9.41;45.55;97843.81;5067301;28;20197;-80
2022/11/27 11:44:31;;;;;;;3.87;2.83;;;;;;;9.60;45.17;97883.75;5066873;28;20185;-78
2022/11/27 11:47:02;;;;;;;6.87;4.57;;;;;;;9.56;46.26;97863.22;5032416;28;20232;-78
2022/11/27 11:49:34;;;;;;;4.80;3.40;;;;;;;9.53;45.38;97863.28;5049317;28;20189;-80
2022/11/27 11:52:22;;;;;;;2.07;1.87;;;;;;;9.34;45.96;97875.88;5064751;28;20220;-78
2022/11/27 11:55:25;;;;;;;4.30;3.20;;;;;;;9.08;46.46;97870.56;5050055;28;20675;-81
2022/11/27 11:57:57;;;;;;;4.30;3.37;;;;;;;9.03;46.99;97868.09;5066654;28;20204;-79
2022/11/27 12:00:40;;;;;;;3.33;2.80;;;;;;;8.85;47.33;97867.75;5057750;28;20295;-78
2022/11/27 12:04:11;;;;;;;4.90;3.27;;;;;;;8.85;46.83;97878.94;5069992;28;20212;-83
2022/11/27 12:07:10;;;;;;;2.50;2.30;;;;;;;8.80;46.73;97861.84;4950555;28;20228;-80
2022/11/27 12:10:02;;;;;;;6.13;3.30;;;;;;;8.89;47.18;97864.19;4946719;29;20295;-81
2022/11/27 12:12:35;;;;;;;5.03;3.03;;;;;;;8.85;46.55;97860.00;5029297;28;20214;-80
2022/11/27 12:15:45;;;;;;;4.40;3.10;;;;;;;8.75;47.74;97855.94;5012800;28;20205;-79
2022/11/27 12:18:22;;;;;;;5.60;3.17;;;;;;;8.73;47.59;97857.72;5046210;28;20652;-78
2022/11/27 12:21:17;;;;;;;4.97;3.27;;;;;;;8.84;48.02;97853.16;5030529;28;20188;-78
2022/11/27 12:24:13;;;;;;;6.87;4.60;;;;;;;8.88;47.18;97857.34;5046570;28;21024;-79
2022/11/27 12:27:29;;;;;;;5.77;3.10;;;;;;;8.64;46.97;97829.53;5027450;28;20236;-81
2022/11/27 12:30:04;;;;;;;3.70;2.87;;;;;;;8.74;46.96;97852.50;5028752;28;20224;-80
2022/11/27 12:33:03;;;;;;;3.87;3.07;;;;;;;8.64;47.49;97847.63;5046189;28;20208;-79
2022/11/27 12:35:43;;;;;;;6.67;3.47;;;;;;;8.52;47.39;97835.88;5027842;28;20204;-79
2022/11/27 12:38:21;;;;;;;4.80;3.33;;;;;;;8.58;46.82;97847.78;5028996;28;20197;-80
2022/11/27 12:41:13;;;;;;;4.50;3.10;;;;;;;8.56;47.05;97849.53;5046271;28;20209;-80
2022/11/27 12:43:59;;;;;;;4.83;3.03;;;;;;;8.53;47.21;97831.56;5046122;28;20189;-80
2022/11/27 12:46:50;;;;;;;9.10;4.20;;;;;;;8.64;47.67;97853.63;5031462;28;20308;-80
2022/11/27 12:49:47;;;;;;;5.20;3.10;;;;;;;8.65;47.96;97850.19;5045739;28;20194;-81
2022/11/27 12:52:43;;;;;;;4.60;3.77;;;;;;;8.62;47.75;97839.06;5046078;28;20206;-80
2022/11/27 12:58:49;;;;;;;5.00;3.40;;;;;;;8.62;47.96;97844.22;5028363;28;20732;-79
2022/11/27 13:01:29;;;;;;;7.43;5.03;;;;;;;8.66;47.52;97846.69;5027264;28;20942;-82
2022/11/27 13:04:19;;;;;;;6.60;4.07;;;;;;;8.53;47.22;97853.03;5013463;28;20235;-81
2022/11/27 13:07:18;;;;;;;4.13;3.00;;;;;;;8.61;47.82;97852.88;5065530;28;20228;-81